EZY17KX EGGW-EGJJ
Flight info
| Callsign | EZY17KX |
|---|---|
| Flight time | 0h 42m |
| Altitude | 25000 |
| Route | RODNI N27 ICTAM Q63 CPT Y321 PEPIS/N0392F240 Q41 SAM N63 LELNA |
| Aircraft | A320/M-SDE3FGHIRWY/LB1 |
Departure
| Time | 2026-05-05 19:57 |
|---|---|
| Airport | London Luton Airport (EGGW) |
Arrival
| Time | 2026-05-05 20:39 |
|---|---|
| Airport | Jersey Airport (EGJJ) |
| Time | Latitude | Longitude | Altitude | Speed | Heading |
|---|---|---|---|---|---|
| 2026-05-05 19:17 | 51.87817 | -0.37787 | 524 ft | 0 kts | 23° |
| 2026-05-05 19:18 | 51.87818 | -0.37787 | 524 ft | 0 kts | 23° |
| 2026-05-05 19:50 | 51.87814 | -0.37790 | 523 ft | 2 kts | 24° |
| 2026-05-05 19:50 | 51.87799 | -0.37802 | 523 ft | 2 kts | 28° |
| 2026-05-05 19:50 | 51.87785 | -0.37815 | 523 ft | 2 kts | 48° |
| 2026-05-05 19:50 | 51.87778 | -0.37838 | 523 ft | 2 kts | 118° |
| 2026-05-05 19:51 | 51.87786 | -0.37862 | 523 ft | 2 kts | 114° |
| 2026-05-05 19:51 | 51.87792 | -0.37886 | 523 ft | 2 kts | 115° |
| 2026-05-05 19:51 | 51.87795 | -0.37894 | 523 ft | 0 kts | 116° |
| 2026-05-05 19:52 | 51.87792 | -0.37885 | 523 ft | 4 kts | 116° |
| 2026-05-05 19:52 | 51.87771 | -0.37814 | 523 ft | 0 kts | 115° |
| 2026-05-05 19:53 | 51.87757 | -0.37767 | 523 ft | 9 kts | 116° |
| 2026-05-05 19:54 | 51.87715 | -0.37621 | 519 ft | 18 kts | 116° |
| 2026-05-05 19:54 | 51.87644 | -0.37475 | 522 ft | 16 kts | 151° |
| 2026-05-05 19:54 | 51.87542 | -0.37472 | 521 ft | 15 kts | 200° |
| 2026-05-05 19:54 | 51.87492 | -0.37599 | 523 ft | 13 kts | 255° |
| 2026-05-05 19:55 | 51.87471 | -0.37730 | 523 ft | 12 kts | 255° |
| 2026-05-05 19:55 | 51.87446 | -0.37873 | 523 ft | 16 kts | 255° |
| 2026-05-05 19:55 | 51.87407 | -0.38021 | 524 ft | 14 kts | 228° |
| 2026-05-05 19:55 | 51.87350 | -0.38081 | 523 ft | 0 kts | 204° |
| 2026-05-05 19:56 | 51.87347 | -0.38083 | 523 ft | 3 kts | 204° |
| 2026-05-05 19:56 | 51.87276 | -0.38118 | 523 ft | 16 kts | 184° |
| 2026-05-05 19:56 | 51.87246 | -0.38093 | 524 ft | 1 kts | 73° |
| 2026-05-05 19:57 | 51.87253 | -0.38054 | 524 ft | 13 kts | 74° |
| 2026-05-05 19:57 | 51.87300 | -0.37791 | 524 ft | 63 kts | 74° |
| 2026-05-05 19:57 | 51.87570 | -0.36233 | 523 ft | 146 kts | 75° |
| 2026-05-05 19:57 | 51.87849 | -0.34606 | 1185 ft | 147 kts | 72° |
| 2026-05-05 19:58 | 51.88134 | -0.32986 | 1979 ft | 149 kts | 72° |
| 2026-05-05 19:58 | 51.88437 | -0.31305 | 2378 ft | 171 kts | 71° |
| 2026-05-05 19:58 | 51.88793 | -0.29330 | 2808 ft | 195 kts | 71° |
| 2026-05-05 19:58 | 51.89077 | -0.27749 | 3154 ft | 212 kts | 73° |
| 2026-05-05 19:59 | 51.89135 | -0.24460 | 3781 ft | 248 kts | 101° |
| 2026-05-05 19:59 | 51.88378 | -0.21863 | 4587 ft | 266 kts | 126° |
| 2026-05-05 19:59 | 51.86896 | -0.19996 | 5470 ft | 278 kts | 155° |
| 2026-05-05 19:59 | 51.84984 | -0.19490 | 6445 ft | 283 kts | 186° |
| 2026-05-05 20:00 | 51.83144 | -0.20528 | 7293 ft | 285 kts | 217° |
| 2026-05-05 20:00 | 51.81838 | -0.22877 | 8270 ft | 282 kts | 247° |
| 2026-05-05 20:00 | 51.81373 | -0.25915 | 9221 ft | 279 kts | 271° |
| 2026-05-05 20:00 | 51.81400 | -0.29076 | 10143 ft | 283 kts | 274° |
| 2026-05-05 20:01 | 51.81441 | -0.32375 | 10598 ft | 303 kts | 274° |
| 2026-05-05 20:01 | 51.81490 | -0.35837 | 11339 ft | 310 kts | 273° |
| 2026-05-05 20:01 | 51.81528 | -0.39352 | 12167 ft | 316 kts | 270° |
| 2026-05-05 20:01 | 51.81307 | -0.42906 | 13014 ft | 320 kts | 260° |
| 2026-05-05 20:02 | 51.80814 | -0.46447 | 13834 ft | 325 kts | 258° |
| 2026-05-05 20:02 | 51.80321 | -0.50037 | 14488 ft | 331 kts | 258° |
| 2026-05-05 20:02 | 51.79826 | -0.53614 | 15154 ft | 335 kts | 258° |
| 2026-05-05 20:02 | 51.79294 | -0.57339 | 15874 ft | 339 kts | 257° |
| 2026-05-05 20:03 | 51.78751 | -0.61031 | 16558 ft | 343 kts | 257° |
| 2026-05-05 20:03 | 51.78179 | -0.64801 | 17235 ft | 348 kts | 256° |
| 2026-05-05 20:03 | 51.77590 | -0.68607 | 17932 ft | 352 kts | 256° |
| 2026-05-05 20:03 | 51.77186 | -0.71204 | 18382 ft | 354 kts | 256° |
| 2026-05-05 20:04 | 51.76275 | -0.76290 | 19219 ft | 358 kts | 248° |
| 2026-05-05 20:04 | 51.75117 | -0.79848 | 19861 ft | 361 kts | 237° |
| 2026-05-05 20:04 | 51.73527 | -0.83001 | 20502 ft | 364 kts | 226° |
| 2026-05-05 20:04 | 51.71733 | -0.85888 | 21131 ft | 366 kts | 226° |
| 2026-05-05 20:05 | 51.70514 | -0.87849 | 21544 ft | 368 kts | 226° |
| 2026-05-05 20:05 | 51.68692 | -0.90780 | 22155 ft | 371 kts | 226° |
| 2026-05-05 20:05 | 51.66883 | -0.93683 | 22759 ft | 373 kts | 226° |
| 2026-05-05 20:05 | 51.65015 | -0.96677 | 23376 ft | 376 kts | 226° |
| 2026-05-05 20:06 | 51.63181 | -0.99610 | 23932 ft | 377 kts | 226° |
| 2026-05-05 20:06 | 51.61299 | -1.02627 | 24470 ft | 378 kts | 226° |
| 2026-05-05 20:06 | 51.59432 | -1.05622 | 24982 ft | 379 kts | 226° |
| 2026-05-05 20:06 | 51.57555 | -1.08624 | 25479 ft | 381 kts | 226° |
| 2026-05-05 20:07 | 51.55668 | -1.11630 | 25929 ft | 384 kts | 225° |
| 2026-05-05 20:07 | 51.53760 | -1.14658 | 26373 ft | 387 kts | 225° |
| 2026-05-05 20:07 | 51.51808 | -1.17718 | 26820 ft | 389 kts | 222° |
| 2026-05-05 20:07 | 51.49609 | -1.20254 | 26951 ft | 388 kts | 209° |
| 2026-05-05 20:08 | 51.47182 | -1.21814 | 26973 ft | 373 kts | 195° |
| 2026-05-05 20:08 | 51.44654 | -1.22361 | 26969 ft | 358 kts | 184° |
| 2026-05-05 20:08 | 51.42220 | -1.22534 | 26969 ft | 348 kts | 185° |
| 2026-05-05 20:08 | 51.39781 | -1.22721 | 26969 ft | 345 kts | 185° |
| 2026-05-05 20:09 | 51.37415 | -1.22912 | 26965 ft | 344 kts | 185° |
| 2026-05-05 20:09 | 51.35019 | -1.23112 | 26965 ft | 344 kts | 185° |
| 2026-05-05 20:09 | 51.32630 | -1.23313 | 26964 ft | 344 kts | 185° |
| 2026-05-05 20:09 | 51.30199 | -1.23516 | 26967 ft | 346 kts | 184° |
| 2026-05-05 20:10 | 51.27794 | -1.23711 | 26970 ft | 346 kts | 184° |
| 2026-05-05 20:10 | 51.25383 | -1.23905 | 26970 ft | 347 kts | 184° |
| 2026-05-05 20:10 | 51.22976 | -1.24099 | 26969 ft | 347 kts | 184° |
| 2026-05-05 20:10 | 51.20564 | -1.24303 | 26968 ft | 346 kts | 186° |
| 2026-05-05 20:11 | 51.18199 | -1.24974 | 26966 ft | 345 kts | 196° |
| 2026-05-05 20:11 | 51.15885 | -1.25963 | 26965 ft | 345 kts | 196° |
| 2026-05-05 20:11 | 51.13573 | -1.26942 | 26965 ft | 345 kts | 196° |
| 2026-05-05 20:11 | 51.11244 | -1.27923 | 26965 ft | 345 kts | 196° |
| 2026-05-05 20:12 | 51.08923 | -1.28897 | 26966 ft | 345 kts | 196° |
| 2026-05-05 20:12 | 51.06603 | -1.29869 | 26968 ft | 345 kts | 196° |
| 2026-05-05 20:12 | 51.04284 | -1.30843 | 26969 ft | 345 kts | 196° |
| 2026-05-05 20:12 | 51.01960 | -1.31818 | 26970 ft | 345 kts | 196° |
| 2026-05-05 20:13 | 50.99637 | -1.32789 | 26970 ft | 345 kts | 196° |
| 2026-05-05 20:13 | 50.97344 | -1.33746 | 26970 ft | 345 kts | 196° |
| 2026-05-05 20:13 | 50.95035 | -1.34928 | 26968 ft | 344 kts | 205° |
| 2026-05-05 20:13 | 50.92925 | -1.36583 | 26968 ft | 343 kts | 208° |
| 2026-05-05 20:14 | 50.90794 | -1.38295 | 26970 ft | 343 kts | 208° |
| 2026-05-05 20:14 | 50.88660 | -1.40000 | 26969 ft | 343 kts | 207° |
| 2026-05-05 20:14 | 50.86525 | -1.41701 | 26968 ft | 343 kts | 208° |
| 2026-05-05 20:14 | 50.84359 | -1.43426 | 26966 ft | 343 kts | 208° |
| 2026-05-05 20:15 | 50.82227 | -1.45126 | 26963 ft | 344 kts | 208° |
| 2026-05-05 20:15 | 50.80087 | -1.46829 | 26961 ft | 344 kts | 208° |
| 2026-05-05 20:15 | 50.77948 | -1.48524 | 26960 ft | 344 kts | 208° |
| 2026-05-05 20:15 | 50.75806 | -1.50221 | 26959 ft | 344 kts | 208° |
| 2026-05-05 20:16 | 50.73671 | -1.51914 | 26963 ft | 344 kts | 208° |
| 2026-05-05 20:16 | 50.71533 | -1.53608 | 26964 ft | 344 kts | 208° |
| 2026-05-05 20:16 | 50.69391 | -1.55307 | 26964 ft | 344 kts | 208° |
| 2026-05-05 20:16 | 50.67251 | -1.57004 | 26963 ft | 344 kts | 208° |
| 2026-05-05 20:17 | 50.65110 | -1.58697 | 26962 ft | 344 kts | 208° |
| 2026-05-05 20:17 | 50.62970 | -1.60388 | 26954 ft | 344 kts | 207° |
| 2026-05-05 20:17 | 50.60824 | -1.62082 | 26935 ft | 345 kts | 207° |
| 2026-05-05 20:17 | 50.58706 | -1.63751 | 26932 ft | 346 kts | 207° |
| 2026-05-05 20:18 | 50.56513 | -1.65475 | 26789 ft | 348 kts | 207° |
| 2026-05-05 20:18 | 50.54352 | -1.67171 | 26391 ft | 345 kts | 207° |
| 2026-05-05 20:18 | 50.52216 | -1.68847 | 25977 ft | 343 kts | 207° |
| 2026-05-05 20:18 | 50.50080 | -1.70522 | 25546 ft | 341 kts | 207° |
| 2026-05-05 20:19 | 50.47957 | -1.72186 | 25108 ft | 340 kts | 207° |
| 2026-05-05 20:19 | 50.45845 | -1.73841 | 24677 ft | 339 kts | 207° |
| 2026-05-05 20:19 | 50.43739 | -1.75487 | 24243 ft | 338 kts | 208° |
| 2026-05-05 20:19 | 50.41655 | -1.77113 | 23809 ft | 337 kts | 208° |
| 2026-05-05 20:20 | 50.39552 | -1.78753 | 23336 ft | 337 kts | 207° |
| 2026-05-05 20:20 | 50.37450 | -1.80386 | 22873 ft | 336 kts | 207° |
| 2026-05-05 20:20 | 50.35363 | -1.82004 | 22445 ft | 334 kts | 207° |
| 2026-05-05 20:20 | 50.33284 | -1.83617 | 22036 ft | 334 kts | 207° |
| 2026-05-05 20:21 | 50.31162 | -1.85266 | 21930 ft | 345 kts | 207° |
| 2026-05-05 20:21 | 50.28983 | -1.86962 | 21460 ft | 355 kts | 207° |
| 2026-05-05 20:21 | 50.26747 | -1.88699 | 20679 ft | 364 kts | 207° |
| 2026-05-05 20:21 | 50.24474 | -1.90460 | 20234 ft | 361 kts | 207° |
| 2026-05-05 20:22 | 50.22229 | -1.92202 | 19782 ft | 359 kts | 207° |
| 2026-05-05 20:22 | 50.19970 | -1.93953 | 19328 ft | 357 kts | 207° |
| 2026-05-05 20:22 | 50.17747 | -1.95671 | 18886 ft | 356 kts | 206° |
| 2026-05-05 20:22 | 50.15528 | -1.97381 | 18447 ft | 354 kts | 206° |
| 2026-05-05 20:23 | 50.13323 | -1.99078 | 17980 ft | 353 kts | 206° |
| 2026-05-05 20:23 | 50.11126 | -2.00767 | 17530 ft | 351 kts | 206° |
| 2026-05-05 20:23 | 50.08948 | -2.02443 | 17110 ft | 348 kts | 206° |
| 2026-05-05 20:23 | 50.06784 | -2.04105 | 16689 ft | 346 kts | 206° |
| 2026-05-05 20:24 | 50.04632 | -2.05758 | 16269 ft | 344 kts | 206° |
| 2026-05-05 20:24 | 50.02492 | -2.07397 | 15861 ft | 342 kts | 206° |
| 2026-05-05 20:24 | 50.00352 | -2.08984 | 15452 ft | 340 kts | 201° |
| 2026-05-05 20:24 | 49.98066 | -2.09895 | 15049 ft | 338 kts | 186° |
| 2026-05-05 20:25 | 49.95728 | -2.09862 | 14648 ft | 336 kts | 170° |
| 2026-05-05 20:25 | 49.93439 | -2.09179 | 14248 ft | 335 kts | 167° |
| 2026-05-05 20:25 | 49.91150 | -2.08466 | 13845 ft | 334 kts | 167° |
| 2026-05-05 20:25 | 49.88879 | -2.07764 | 13413 ft | 333 kts | 167° |
| 2026-05-05 20:26 | 49.86607 | -2.07063 | 13023 ft | 331 kts | 167° |
| 2026-05-05 20:26 | 49.84390 | -2.06382 | 12936 ft | 319 kts | 167° |
| 2026-05-05 20:26 | 49.82228 | -2.05718 | 12949 ft | 314 kts | 167° |
| 2026-05-05 20:26 | 49.80133 | -2.05077 | 12847 ft | 297 kts | 167° |
| 2026-05-05 20:27 | 49.78166 | -2.04477 | 12715 ft | 279 kts | 167° |
| 2026-05-05 20:27 | 49.76324 | -2.03914 | 12584 ft | 262 kts | 167° |
| 2026-05-05 20:27 | 49.74582 | -2.03380 | 12449 ft | 247 kts | 167° |
| 2026-05-05 20:27 | 49.72944 | -2.02876 | 12247 ft | 235 kts | 167° |
| 2026-05-05 20:28 | 49.71356 | -2.02386 | 11890 ft | 231 kts | 167° |
| 2026-05-05 20:28 | 49.69789 | -2.01915 | 11486 ft | 230 kts | 170° |
| 2026-05-05 20:28 | 49.68200 | -2.01624 | 11107 ft | 233 kts | 174° |
| 2026-05-05 20:28 | 49.66536 | -2.01427 | 10633 ft | 243 kts | 175° |
| 2026-05-05 20:29 | 49.64842 | -2.01258 | 10316 ft | 244 kts | 176° |
| 2026-05-05 20:29 | 49.63151 | -2.01094 | 10036 ft | 243 kts | 176° |
| 2026-05-05 20:29 | 49.61470 | -2.00925 | 9745 ft | 242 kts | 175° |
| 2026-05-05 20:29 | 49.59794 | -2.00743 | 9437 ft | 241 kts | 175° |
| 2026-05-05 20:30 | 49.58126 | -2.00556 | 9135 ft | 240 kts | 175° |
| 2026-05-05 20:30 | 49.56470 | -2.00364 | 8830 ft | 238 kts | 175° |
| 2026-05-05 20:30 | 49.54815 | -2.00173 | 8526 ft | 237 kts | 175° |
| 2026-05-05 20:30 | 49.53172 | -1.99984 | 8225 ft | 236 kts | 175° |
| 2026-05-05 20:31 | 49.51540 | -1.99796 | 7928 ft | 235 kts | 174° |
| 2026-05-05 20:31 | 49.49908 | -1.99608 | 7625 ft | 234 kts | 174° |
| 2026-05-05 20:31 | 49.48284 | -1.99421 | 7332 ft | 234 kts | 174° |
| 2026-05-05 20:31 | 49.46667 | -1.99238 | 7045 ft | 233 kts | 174° |
| 2026-05-05 20:32 | 49.45056 | -1.99051 | 6824 ft | 231 kts | 174° |
| 2026-05-05 20:32 | 49.43451 | -1.98860 | 6586 ft | 232 kts | 174° |
| 2026-05-05 20:32 | 49.41835 | -1.98668 | 6305 ft | 232 kts | 174° |
| 2026-05-05 20:32 | 49.40231 | -1.98481 | 6015 ft | 231 kts | 174° |
| 2026-05-05 20:33 | 49.38631 | -1.98299 | 5735 ft | 230 kts | 174° |
| 2026-05-05 20:33 | 49.37058 | -1.98121 | 5456 ft | 229 kts | 174° |
| 2026-05-05 20:33 | 49.35453 | -1.97938 | 5169 ft | 228 kts | 173° |
| 2026-05-05 20:33 | 49.33907 | -1.97762 | 4886 ft | 223 kts | 173° |
| 2026-05-05 20:34 | 49.32380 | -1.97586 | 4607 ft | 217 kts | 173° |
| 2026-05-05 20:34 | 49.30887 | -1.97414 | 4333 ft | 212 kts | 173° |
| 2026-05-05 20:34 | 49.29443 | -1.97248 | 4093 ft | 204 kts | 173° |
| 2026-05-05 20:34 | 49.28057 | -1.97090 | 3827 ft | 195 kts | 173° |
| 2026-05-05 20:35 | 49.26733 | -1.96940 | 3582 ft | 187 kts | 173° |
| 2026-05-05 20:35 | 49.25454 | -1.96793 | 3344 ft | 181 kts | 172° |
| 2026-05-05 20:35 | 49.24220 | -1.96650 | 3122 ft | 175 kts | 173° |
| 2026-05-05 20:35 | 49.23416 | -1.96794 | 3003 ft | 171 kts | 206° |
| 2026-05-05 20:36 | 49.22598 | -1.98570 | 2956 ft | 154 kts | 267° |
| 2026-05-05 20:36 | 49.22428 | -2.00198 | 2715 ft | 155 kts | 266° |
| 2026-05-05 20:36 | 49.22321 | -2.01292 | 2562 ft | 153 kts | 266° |
| 2026-05-05 20:36 | 49.22178 | -2.02887 | 2353 ft | 150 kts | 267° |
| 2026-05-05 20:37 | 49.22044 | -2.04451 | 2147 ft | 147 kts | 268° |
| 2026-05-05 20:37 | 49.21915 | -2.06003 | 1933 ft | 147 kts | 267° |
| 2026-05-05 20:37 | 49.21788 | -2.07538 | 1783 ft | 145 kts | 268° |
| 2026-05-05 20:37 | 49.21664 | -2.09041 | 1581 ft | 141 kts | 267° |
| 2026-05-05 20:38 | 49.21542 | -2.10522 | 1386 ft | 141 kts | 267° |
| 2026-05-05 20:38 | 49.21420 | -2.12005 | 1175 ft | 141 kts | 267° |
| 2026-05-05 20:38 | 49.21306 | -2.13397 | 989 ft | 140 kts | 266° |
| 2026-05-05 20:38 | 49.21188 | -2.14862 | 763 ft | 138 kts | 268° |
| 2026-05-05 20:39 | 49.21071 | -2.16292 | 588 ft | 135 kts | 267° |
| 2026-05-05 20:39 | 49.20950 | -2.17707 | 403 ft | 133 kts | 266° |
| 2026-05-05 20:39 | 49.20842 | -2.19077 | 287 ft | 123 kts | 265° |
| 2026-05-05 20:39 | 49.20758 | -2.20030 | 280 ft | 46 kts | 262° |
| 2026-05-05 20:40 | 49.20726 | -2.20431 | 279 ft | 37 kts | 262° |
| 2026-05-05 20:40 | 49.20704 | -2.20645 | 280 ft | 18 kts | 247° |
| 2026-05-05 20:40 | 49.20639 | -2.20650 | 281 ft | 10 kts | 119° |
| 2026-05-05 20:40 | 49.20623 | -2.20549 | 280 ft | 9 kts | 101° |
| 2026-05-05 20:41 | 49.20604 | -2.20435 | 284 ft | 16 kts | 106° |
| 2026-05-05 20:41 | 49.20566 | -2.20235 | 280 ft | 21 kts | 106° |
| 2026-05-05 20:41 | 49.20530 | -2.20053 | 283 ft | 17 kts | 107° |
| 2026-05-05 20:41 | 49.20544 | -2.19937 | 280 ft | 10 kts | 22° |
| 2026-05-05 20:42 | 49.20599 | -2.19898 | 282 ft | 9 kts | 58° |
| 2026-05-05 20:42 | 49.20598 | -2.19818 | 281 ft | 7 kts | 127° |
| 2026-05-05 20:42 | 49.20561 | -2.19807 | 281 ft | 1 kts | 172° |
| 2026-05-05 20:42 | 49.20560 | -2.19807 | 281 ft | 0 kts | 172° |